createdAt,value
2023-02-21T00:02:22.603Z,9.90
2023-02-21T00:05:08.724Z,9.90
2023-02-21T00:07:54.477Z,9.90
2023-02-21T00:10:40.386Z,9.90
2023-02-21T00:13:26.337Z,9.90
2023-02-21T00:16:12.245Z,9.90
2023-02-21T00:18:58.384Z,9.90
2023-02-21T00:21:46.342Z,9.90
2023-02-21T00:24:37.387Z,9.90
2023-02-21T00:27:25.765Z,9.90
2023-02-21T00:30:11.766Z,9.90
2023-02-21T00:32:57.790Z,9.90
2023-02-21T00:35:43.623Z,9.90
2023-02-21T00:38:29.825Z,9.90
2023-02-21T00:41:16.078Z,9.90
2023-02-21T00:44:03.178Z,9.90
2023-02-21T00:46:51.995Z,9.90
2023-02-21T00:49:37.992Z,9.80
2023-02-21T00:52:26.978Z,9.90
2023-02-21T00:55:12.648Z,9.80
2023-02-21T00:57:58.008Z,9.90
2023-02-21T01:00:44.966Z,9.80
2023-02-21T01:03:31.270Z,9.80
2023-02-21T01:06:18.185Z,9.80
2023-02-21T01:09:05.306Z,9.80
2023-02-21T01:11:52.189Z,9.80
2023-02-21T01:14:38.304Z,9.80
2023-02-21T01:17:24.031Z,9.90
2023-02-21T01:20:12.087Z,9.90
2023-02-21T01:22:58.069Z,9.80
2023-02-21T01:25:43.580Z,9.90
2023-02-21T01:28:29.579Z,9.80
2023-02-21T01:31:18.477Z,9.80
2023-02-21T01:34:04.828Z,9.80
2023-02-21T01:36:50.585Z,9.80
2023-02-21T01:39:36.105Z,9.80
2023-02-21T01:42:22.435Z,9.80
2023-02-21T01:45:31.041Z,9.80
2023-02-21T01:48:16.759Z,9.80
2023-02-21T01:51:02.291Z,9.80
2023-02-21T01:53:48.879Z,9.80
2023-02-21T01:56:37.190Z,9.70
2023-02-21T01:59:22.945Z,9.80
2023-02-21T02:02:18.192Z,9.80
2023-02-21T02:05:08.138Z,9.70
2023-02-21T02:07:55.365Z,9.70
2023-02-21T02:10:41.927Z,9.70
2023-02-21T02:13:46.297Z,9.70
2023-02-21T02:16:27.115Z,9.70
2023-02-21T02:19:24.749Z,9.70
2023-02-21T02:22:10.904Z,9.70
2023-02-21T02:25:10.384Z,9.70
2023-02-21T02:27:54.330Z,9.60
2023-02-21T02:31:06.561Z,9.60
2023-02-21T02:34:04.831Z,9.60
2023-02-21T02:36:43.504Z,9.60
2023-02-21T02:39:28.845Z,9.60
2023-02-21T02:42:02.221Z,9.60
2023-02-21T02:44:41.915Z,9.50
2023-02-21T02:47:20.179Z,9.50
2023-02-21T02:49:48.690Z,9.50
2023-02-21T02:52:16.052Z,9.50
2023-02-21T02:54:45.730Z,9.50
2023-02-21T02:57:13.612Z,9.50
2023-02-21T02:59:48.193Z,9.50
2023-02-21T03:02:35.613Z,9.50
2023-02-21T03:05:42.692Z,9.50
2023-02-21T03:08:43.377Z,9.50
2023-02-21T03:11:18.107Z,9.50
2023-02-21T03:14:18.195Z,9.50
2023-02-21T03:16:52.422Z,9.50
2023-02-21T03:19:31.711Z,9.50
2023-02-21T03:22:08.358Z,9.50
2023-02-21T03:24:40.846Z,9.50
2023-02-21T03:27:09.243Z,9.50
2023-02-21T03:29:39.435Z,9.50
2023-02-21T03:32:12.109Z,9.50
2023-02-21T03:34:42.670Z,9.50
2023-02-21T03:37:19.367Z,9.50
2023-02-21T03:39:46.540Z,9.50
2023-02-21T03:42:13.859Z,9.50
2023-02-21T03:44:44.034Z,9.50
2023-02-21T03:47:11.268Z,9.50
2023-02-21T03:49:38.408Z,9.50
2023-02-21T03:52:05.985Z,9.50
2023-02-21T03:54:33.503Z,9.50
2023-02-21T03:57:01.067Z,9.50
2023-02-21T03:59:28.520Z,9.50
2023-02-21T04:01:56.298Z,9.50
2023-02-21T04:04:23.745Z,9.50
2023-02-21T04:06:51.826Z,9.50
2023-02-21T04:09:19.281Z,9.50
2023-02-21T04:11:47.592Z,9.50
2023-02-21T04:14:14.925Z,9.50
2023-02-21T04:16:43.477Z,9.50
2023-02-21T04:19:11.144Z,9.50
2023-02-21T04:21:38.411Z,9.50
2023-02-21T04:24:05.851Z,9.50
2023-02-21T04:26:35.331Z,9.40
2023-02-21T04:29:02.701Z,9.40
2023-02-21T04:31:35.234Z,9.40
2023-02-21T04:34:11.621Z,9.40
2023-02-21T04:36:40.587Z,9.40
2023-02-21T04:39:07.885Z,9.40
2023-02-21T04:41:35.595Z,9.40
2023-02-21T04:44:04.736Z,9.40
2023-02-21T04:46:32.207Z,9.40
2023-02-21T04:48:59.557Z,9.40
2023-02-21T04:51:27.515Z,9.30
2023-02-21T04:53:56.207Z,9.40
2023-02-21T04:56:27.758Z,9.40
2023-02-21T04:58:55.401Z,9.40
2023-02-21T05:01:23.537Z,9.40
2023-02-21T05:03:51.082Z,9.40
2023-02-21T05:06:23.223Z,9.40
2023-02-21T05:08:51.144Z,9.30
2023-02-21T05:11:19.987Z,9.30
2023-02-21T05:13:48.543Z,9.30
2023-02-21T05:16:16.349Z,9.30
2023-02-21T05:18:44.677Z,9.30
2023-02-21T05:21:13.246Z,9.30
2023-02-21T05:23:42.925Z,9.30
2023-02-21T05:26:13.056Z,9.30
2023-02-21T05:28:44.401Z,9.30
2023-02-21T05:31:11.883Z,9.30
2023-02-21T05:33:39.368Z,9.20
2023-02-21T05:36:07.126Z,9.20
2023-02-21T05:38:44.209Z,9.20
2023-02-21T05:41:12.634Z,9.20
2023-02-21T05:43:42.365Z,9.30
2023-02-21T05:46:20.872Z,9.30
2023-02-21T05:48:49.781Z,9.30
2023-02-21T05:51:17.625Z,9.30
2023-02-21T05:53:45.696Z,9.30
2023-02-21T05:56:13.778Z,9.30
2023-02-21T05:58:41.256Z,9.30
2023-02-21T06:01:08.906Z,9.30
2023-02-21T06:03:36.537Z,9.20
2023-02-21T06:06:04.325Z,9.20
2023-02-21T06:08:32.672Z,9.20
2023-02-21T06:11:00.037Z,9.10
2023-02-21T06:13:27.487Z,9.10
2023-02-21T06:16:02.751Z,9.00
2023-02-21T06:18:29.999Z,9.00
2023-02-21T06:20:57.271Z,8.90
2023-02-21T06:23:24.906Z,8.90
2023-02-21T06:25:52.180Z,8.90
2023-02-21T06:28:19.432Z,8.90
2023-02-21T06:30:46.711Z,8.80
2023-02-21T06:33:14.787Z,8.80
2023-02-21T06:35:42.210Z,8.70
2023-02-21T06:38:09.627Z,8.70
2023-02-21T06:40:36.715Z,8.70
2023-02-21T06:43:04.204Z,8.70
2023-02-21T06:45:31.307Z,8.70
2023-02-21T06:47:58.487Z,8.70
2023-02-21T06:50:25.884Z,8.70
2023-02-21T06:52:56.304Z,8.60
2023-02-21T06:55:25.627Z,8.70
2023-02-21T06:57:55.908Z,8.70
2023-02-21T07:00:23.349Z,8.70
2023-02-21T07:02:50.403Z,8.70
2023-02-21T07:05:17.712Z,8.60
2023-02-21T07:07:44.994Z,8.60
2023-02-21T07:10:14.256Z,8.60
2023-02-21T07:12:41.539Z,8.60
2023-02-21T07:15:09.085Z,8.50
2023-02-21T07:17:36.420Z,8.50
2023-02-21T07:20:04.952Z,8.60
2023-02-21T07:22:32.227Z,8.50
2023-02-21T07:24:59.817Z,8.50
2023-02-21T07:27:27.267Z,8.50
2023-02-21T07:29:54.515Z,8.50
2023-02-21T07:34:50.048Z,8.50
2023-02-21T07:37:17.163Z,8.50
2023-02-21T07:39:45.422Z,8.50
2023-02-21T07:42:14.258Z,8.40
2023-02-21T07:44:41.778Z,8.50
2023-02-21T07:47:11.029Z,8.50
2023-02-21T07:49:41.034Z,8.50
2023-02-21T07:52:08.409Z,8.50
2023-02-21T07:54:36.441Z,8.50
2023-02-21T07:57:05.021Z,8.50
2023-02-21T07:59:32.725Z,8.60
2023-02-21T08:02:03.412Z,8.60
2023-02-21T08:04:33.257Z,8.60
2023-02-21T08:07:01.864Z,8.70
2023-02-21T08:09:29.344Z,8.70
2023-02-21T08:11:57.426Z,8.70
2023-02-21T08:14:24.669Z,8.80
2023-02-21T08:16:52.099Z,8.80
2023-02-21T08:19:19.500Z,8.90
2023-02-21T08:21:47.853Z,8.90
2023-02-21T08:24:15.736Z,8.90
2023-02-21T08:26:45.737Z,8.90
2023-02-21T08:29:14.772Z,8.90
2023-02-21T08:31:45.572Z,9.00
2023-02-21T08:34:13.709Z,9.00
2023-02-21T08:36:44.013Z,9.10
2023-02-21T08:39:12.430Z,9.10
2023-02-21T08:41:44.969Z,9.20
2023-02-21T08:44:16.648Z,9.20
2023-02-21T08:46:44.828Z,9.30
2023-02-21T08:49:14.158Z,9.30
2023-02-21T08:51:42.478Z,9.30
2023-02-21T08:54:10.846Z,9.30
2023-02-21T08:56:39.399Z,9.30
2023-02-21T08:59:06.663Z,9.30
2023-02-21T09:01:44.824Z,9.30
2023-02-21T09:04:13.271Z,9.30
2023-02-21T09:06:40.714Z,9.40
2023-02-21T09:09:08.336Z,9.40
2023-02-21T09:11:35.445Z,9.40
2023-02-21T09:14:06.413Z,9.50
2023-02-21T09:16:33.794Z,9.60
2023-02-21T09:19:02.349Z,9.60
2023-02-21T09:21:30.010Z,9.60
2023-02-21T09:23:59.615Z,9.60
2023-02-21T09:26:27.235Z,9.60
2023-02-21T09:28:54.694Z,9.60
2023-02-21T09:31:22.060Z,9.60
2023-02-21T09:33:49.272Z,9.70
2023-02-21T09:36:16.605Z,9.70
2023-02-21T09:38:44.120Z,9.70
2023-02-21T09:41:15.907Z,9.70
2023-02-21T09:43:49.879Z,9.80
2023-02-21T09:46:34.741Z,9.80
2023-02-21T09:49:04.322Z,9.80
2023-02-21T09:51:36.691Z,9.90
2023-02-21T09:54:04.851Z,9.90
2023-02-21T09:56:38.974Z,9.90
2023-02-21T09:59:14.687Z,9.90
2023-02-21T10:01:47.667Z,9.90
2023-02-21T10:04:33.509Z,9.90
2023-02-21T10:07:23.555Z,10.00
2023-02-21T10:10:05.616Z,10.00
2023-02-21T10:12:41.853Z,10.00
2023-02-21T10:15:30.737Z,10.00
2023-02-21T10:18:21.174Z,10.00
2023-02-21T10:20:51.705Z,10.00
2023-02-21T10:23:25.156Z,10.00
2023-02-21T10:26:02.895Z,10.00
2023-02-21T10:28:30.399Z,10.00
2023-02-21T10:31:05.886Z,10.10
2023-02-21T10:33:35.259Z,10.10
2023-02-21T10:36:02.494Z,10.10
2023-02-21T10:38:32.543Z,10.10
2023-02-21T10:41:04.890Z,10.20
2023-02-21T10:43:36.862Z,10.20
2023-02-21T10:46:22.746Z,10.20
2023-02-21T10:48:53.548Z,10.30
2023-02-21T10:51:34.837Z,10.30
2023-02-21T10:54:22.785Z,10.40
2023-02-21T10:56:52.869Z,10.40
2023-02-21T10:59:27.584Z,10.50
2023-02-21T11:01:55.606Z,10.50
2023-02-21T11:04:27.429Z,10.50
2023-02-21T11:07:05.555Z,10.50
2023-02-21T11:09:36.318Z,10.50
2023-02-21T11:12:18.886Z,10.60
2023-02-21T11:15:07.764Z,10.60
2023-02-21T11:17:35.282Z,10.70
2023-02-21T11:20:08.477Z,10.70
2023-02-21T11:22:37.371Z,10.70
2023-02-21T11:25:22.469Z,10.80
2023-02-21T11:28:23.222Z,10.80
2023-02-21T11:31:02.558Z,10.80
2023-02-21T11:33:30.723Z,10.80
2023-02-21T11:36:14.588Z,10.90
2023-02-21T11:38:46.439Z,10.90
2023-02-21T11:41:44.907Z,10.90
2023-02-21T11:44:32.541Z,11.00
2023-02-21T11:47:21.385Z,11.10
2023-02-21T11:50:02.095Z,11.10
2023-02-21T11:52:39.905Z,11.20
2023-02-21T11:55:16.753Z,11.10
2023-02-21T11:58:12.911Z,11.10
2023-02-21T12:01:02.147Z,11.10
2023-02-21T12:03:47.280Z,11.10
2023-02-21T12:06:40.361Z,11.10
2023-02-21T12:09:27.793Z,11.10
2023-02-21T12:12:34.394Z,11.20
2023-02-21T12:15:23.067Z,11.20
2023-02-21T12:18:44.486Z,11.20
2023-02-21T12:21:34.934Z,11.30
2023-02-21T12:24:43.735Z,11.30
2023-02-21T12:27:19.496Z,11.20
2023-02-21T12:29:52.824Z,11.30
2023-02-21T12:32:38.681Z,11.30
2023-02-21T12:35:41.087Z,11.40
2023-02-21T12:38:18.532Z,11.40
2023-02-21T12:41:11.673Z,11.40
2023-02-21T12:43:45.113Z,11.50
2023-02-21T12:46:39.187Z,11.50
2023-02-21T12:49:16.256Z,11.60
2023-02-21T12:51:51.653Z,11.60
2023-02-21T12:54:31.591Z,11.60
2023-02-21T12:57:05.582Z,11.70
2023-02-21T12:59:52.151Z,11.70
2023-02-21T13:02:58.719Z,11.70
2023-02-21T13:05:49.122Z,11.80
2023-02-21T13:08:25.346Z,11.80
2023-02-21T13:11:15.098Z,11.80
2023-02-21T13:13:43.749Z,11.80
2023-02-21T13:16:13.574Z,11.90
2023-02-21T13:18:46.792Z,11.90
2023-02-21T13:21:38.641Z,11.90
2023-02-21T13:24:15.899Z,11.90
2023-02-21T13:27:03.103Z,11.90
2023-02-21T13:29:33.124Z,11.90
2023-02-21T13:32:02.458Z,11.90
2023-02-21T13:35:05.914Z,11.90
2023-02-21T13:37:35.250Z,11.80
2023-02-21T13:40:16.811Z,11.80
2023-02-21T13:42:44.452Z,11.80
2023-02-21T13:45:25.296Z,11.80
2023-02-21T13:48:01.811Z,11.80
2023-02-21T13:50:38.413Z,11.80
2023-02-21T13:53:08.908Z,11.80
2023-02-21T13:55:37.464Z,11.80
2023-02-21T13:58:05.816Z,11.90
2023-02-21T14:00:33.005Z,11.80
2023-02-21T14:03:23.016Z,11.90
2023-02-21T14:05:53.040Z,11.90
2023-02-21T14:08:35.729Z,11.90
2023-02-21T14:11:06.104Z,11.90
2023-02-21T14:13:37.077Z,11.90
2023-02-21T14:16:17.943Z,11.90
2023-02-21T14:19:11.724Z,11.90
2023-02-21T14:21:52.185Z,11.90
2023-02-21T14:24:29.473Z,11.90
2023-02-21T14:27:01.243Z,11.80
2023-02-21T14:29:39.422Z,11.90
2023-02-21T14:32:09.954Z,11.80
2023-02-21T14:34:57.418Z,11.90
2023-02-21T14:37:30.993Z,11.90
2023-02-21T14:40:10.920Z,11.90
2023-02-21T14:42:47.445Z,11.90
2023-02-21T14:45:23.701Z,11.90
2023-02-21T14:48:27.478Z,11.90
2023-02-21T14:51:28.564Z,11.90
2023-02-21T14:54:07.824Z,11.90
2023-02-21T14:56:53.928Z,11.90
2023-02-21T14:59:51.942Z,11.90
2023-02-21T15:02:44.912Z,12.00
2023-02-21T15:05:20.635Z,11.90
2023-02-21T15:08:08.955Z,11.90
2023-02-21T15:10:48.226Z,11.90
2023-02-21T15:13:42.282Z,11.90
2023-02-21T15:16:12.966Z,11.80
2023-02-21T15:18:42.377Z,11.80
2023-02-21T15:21:12.647Z,11.80
2023-02-21T15:23:43.042Z,11.80
2023-02-21T15:26:27.822Z,11.70
2023-02-21T15:29:18.451Z,11.60
2023-02-21T15:31:56.008Z,11.60
2023-02-21T15:34:33.534Z,11.60
2023-02-21T15:37:19.477Z,11.60
2023-02-21T15:39:56.970Z,11.50
2023-02-21T15:42:25.919Z,11.40
2023-02-21T15:44:57.079Z,11.40
2023-02-21T15:47:27.411Z,11.40
2023-02-21T15:50:06.660Z,11.30
2023-02-21T15:52:39.638Z,11.30
2023-02-21T15:55:29.513Z,11.30
2023-02-21T15:58:11.956Z,11.20
2023-02-21T16:00:42.589Z,11.20
2023-02-21T16:03:33.832Z,11.20
2023-02-21T16:06:23.135Z,11.20
2023-02-21T16:08:59.248Z,11.10
2023-02-21T16:11:47.058Z,11.10
2023-02-21T16:14:22.623Z,11.10
2023-02-21T16:16:56.576Z,11.00
2023-02-21T16:19:27.269Z,11.00
2023-02-21T16:22:13.661Z,11.00
2023-02-21T16:24:42.321Z,11.00
2023-02-21T16:27:15.962Z,11.00
2023-02-21T16:29:43.134Z,11.00
2023-02-21T16:32:21.548Z,10.90
2023-02-21T16:34:52.210Z,10.90
2023-02-21T16:37:19.302Z,10.90
2023-02-21T16:39:46.748Z,10.90
2023-02-21T16:42:14.808Z,10.90
2023-02-21T16:44:45.750Z,10.90
2023-02-21T16:47:17.536Z,10.80
2023-02-21T16:49:45.249Z,10.80
2023-02-21T16:52:15.377Z,10.80
2023-02-21T16:54:46.061Z,10.70
2023-02-21T16:57:16.839Z,10.70
2023-02-21T16:59:44.234Z,10.70
2023-02-21T17:02:15.503Z,10.60
2023-02-21T17:04:42.694Z,10.60
2023-02-21T17:07:11.242Z,10.60
2023-02-21T17:09:39.616Z,10.60
2023-02-21T17:12:07.857Z,10.50
2023-02-21T17:14:35.361Z,10.50
2023-02-21T17:17:02.726Z,10.50
2023-02-21T17:19:30.075Z,10.40
2023-02-21T17:21:58.770Z,10.40
2023-02-21T17:24:27.586Z,10.40
2023-02-21T17:26:55.111Z,10.40
2023-02-21T17:29:22.441Z,10.30
2023-02-21T17:31:54.976Z,10.30
2023-02-21T17:34:24.840Z,10.20
2023-02-21T17:36:54.582Z,10.20
2023-02-21T17:39:22.979Z,10.10
2023-02-21T17:41:51.755Z,10.10
2023-02-21T17:44:19.507Z,10.10
2023-02-21T17:46:53.029Z,10.10
2023-02-21T17:49:23.770Z,10.10
2023-02-21T17:51:52.179Z,10.10
2023-02-21T17:54:22.555Z,10.00
2023-02-21T17:56:52.528Z,10.00
2023-02-21T17:59:20.394Z,10.00
2023-02-21T18:01:48.110Z,10.00
2023-02-21T18:04:16.258Z,10.00
2023-02-21T18:06:44.108Z,10.00
2023-02-21T18:09:11.359Z,9.90
2023-02-21T18:11:47.580Z,10.00
2023-02-21T18:14:14.817Z,10.00
2023-02-21T18:16:42.441Z,9.90
2023-02-21T18:19:12.882Z,9.90
2023-02-21T18:21:41.644Z,9.90
2023-02-21T18:24:10.512Z,9.90
2023-02-21T18:26:38.534Z,9.90
2023-02-21T18:29:08.322Z,9.90
2023-02-21T18:31:36.090Z,9.90
2023-02-21T18:34:04.157Z,9.90
2023-02-21T18:36:34.453Z,9.90
2023-02-21T18:39:02.930Z,9.80
2023-02-21T18:41:34.459Z,9.80
2023-02-21T18:44:01.620Z,9.80
2023-02-21T18:46:29.212Z,9.80
2023-02-21T18:48:56.640Z,9.80
2023-02-21T18:51:24.618Z,9.80
2023-02-21T18:53:52.110Z,9.70
2023-02-21T18:56:20.932Z,9.70
2023-02-21T18:58:49.883Z,9.70
2023-02-21T19:01:19.508Z,9.70
2023-02-21T19:03:47.034Z,9.70
2023-02-21T19:06:17.774Z,9.60
2023-02-21T19:08:47.151Z,9.60
2023-02-21T19:11:15.988Z,9.60
2023-02-21T19:13:47.562Z,9.60
2023-02-21T19:16:15.480Z,9.60
2023-02-21T19:18:42.964Z,9.60
2023-02-21T19:21:12.921Z,9.50
2023-02-21T19:23:41.229Z,9.50
2023-02-21T19:26:09.469Z,9.50
2023-02-21T19:28:38.971Z,9.50
2023-02-21T19:31:07.379Z,9.50
2023-02-21T19:33:38.892Z,9.50
2023-02-21T19:36:07.277Z,9.50
2023-02-21T19:38:35.153Z,9.50
2023-02-21T19:41:05.833Z,9.50
2023-02-21T19:43:36.579Z,9.50
2023-02-21T19:46:04.325Z,9.50
2023-02-21T19:48:31.660Z,9.50
2023-02-21T19:50:59.339Z,9.50
2023-02-21T19:53:26.737Z,9.40
2023-02-21T19:55:55.009Z,9.40
2023-02-21T19:58:25.252Z,9.40
2023-02-21T20:00:52.574Z,9.40
2023-02-21T20:03:19.738Z,9.40
2023-02-21T20:05:49.340Z,9.40
2023-02-21T20:08:16.689Z,9.40
2023-02-21T20:10:44.585Z,9.40
2023-02-21T20:13:11.888Z,9.40
2023-02-21T20:15:39.303Z,9.30
2023-02-21T20:18:06.575Z,9.30
2023-02-21T20:20:34.064Z,9.30
2023-02-21T20:23:03.112Z,9.30
2023-02-21T20:25:32.614Z,9.30
2023-02-21T20:27:59.746Z,9.30
2023-02-21T20:30:27.532Z,9.30
2023-02-21T20:32:59.152Z,9.30
2023-02-21T20:35:27.113Z,9.30
2023-02-21T20:37:54.996Z,9.30
2023-02-21T20:40:25.689Z,9.20
2023-02-21T20:42:53.008Z,9.20
2023-02-21T20:45:20.354Z,9.30
2023-02-21T20:47:50.702Z,9.30
2023-02-21T20:50:24.384Z,9.20
2023-02-21T20:52:52.509Z,9.20
2023-02-21T20:55:22.602Z,9.20
2023-02-21T20:57:50.262Z,9.20
2023-02-21T21:00:23.853Z,9.20
2023-02-21T21:02:52.163Z,9.20
2023-02-21T21:05:21.157Z,9.20
2023-02-21T21:07:49.058Z,9.20
2023-02-21T21:10:17.350Z,9.10
2023-02-21T21:12:45.656Z,9.20
2023-02-21T21:15:14.713Z,9.10
2023-02-21T21:17:45.158Z,9.10
2023-02-21T21:20:18.255Z,9.10
2023-02-21T21:22:46.548Z,9.10
2023-02-21T21:25:15.016Z,9.10
2023-02-21T21:27:44.469Z,9.10
2023-02-21T21:30:18.609Z,9.10
2023-02-21T21:32:46.080Z,9.10
2023-02-21T21:35:17.129Z,9.10
2023-02-21T21:37:44.859Z,9.10
2023-02-21T21:40:18.234Z,9.10
2023-02-21T21:42:49.228Z,9.10
2023-02-21T21:45:44.649Z,9.10
2023-02-21T21:48:15.381Z,9.10
2023-02-21T21:50:43.627Z,9.10
2023-02-21T21:53:11.581Z,9.20
2023-02-21T21:55:39.776Z,9.10
2023-02-21T21:58:11.107Z,9.10
2023-02-21T22:00:42.321Z,9.10
2023-02-21T22:03:14.596Z,9.10
2023-02-21T22:05:46.170Z,9.10
2023-02-21T22:08:18.202Z,9.10
2023-02-21T22:10:46.534Z,9.10
2023-02-21T22:13:14.052Z,9.10
2023-02-21T22:15:44.440Z,9.10
2023-02-21T22:18:13.105Z,9.10
2023-02-21T22:20:40.357Z,9.10
2023-02-21T22:23:07.944Z,9.10
2023-02-21T22:25:37.257Z,9.10
2023-02-21T22:28:09.918Z,9.00
2023-02-21T22:30:45.214Z,9.00
2023-02-21T22:33:16.025Z,9.00
2023-02-21T22:35:43.480Z,9.00
2023-02-21T22:38:14.644Z,8.90
2023-02-21T22:40:43.712Z,8.90
2023-02-21T22:43:11.774Z,9.00
2023-02-21T22:45:39.629Z,8.90
2023-02-21T22:48:11.722Z,8.90
2023-02-21T22:50:40.085Z,8.90
2023-02-21T22:53:13.669Z,8.80
2023-02-21T22:55:41.287Z,8.90
2023-02-21T22:58:11.489Z,8.90
2023-02-21T23:00:39.136Z,8.90
2023-02-21T23:03:13.417Z,8.90
2023-02-21T23:05:49.882Z,8.90
2023-02-21T23:08:23.082Z,8.90
2023-02-21T23:10:51.862Z,8.90
2023-02-21T23:13:23.374Z,8.90
2023-02-21T23:15:53.750Z,8.90
2023-02-21T23:18:24.521Z,8.90
2023-02-21T23:20:55.384Z,8.90
2023-02-21T23:23:26.985Z,8.90
2023-02-21T23:26:02.806Z,8.90
2023-02-21T23:28:31.941Z,8.90
2023-02-21T23:31:02.738Z,8.90
2023-02-21T23:33:34.364Z,8.90
2023-02-21T23:36:02.491Z,8.90
2023-02-21T23:38:29.855Z,9.00
2023-02-21T23:40:59.595Z,8.90
2023-02-21T23:43:35.994Z,8.90
2023-02-21T23:46:06.800Z,8.90
2023-02-21T23:48:34.677Z,8.90
2023-02-21T23:51:02.214Z,8.90
2023-02-21T23:53:32.220Z,8.90
2023-02-21T23:56:01.054Z,8.90
2023-02-21T23:58:32.193Z,8.90
